Time;durP1;ratioP1;P1;durP2;ratioP2;P2;SDS_P1;SDS_P2;PMS_P1;PMS_P2;Temp;Humidity;BMP_temperature;BMP_pressure;BME280_temperature;BME280_humidity;BME280_pressure;Samples;Min_cycle;Max_cycle;Signal;HPM_P1;HPM_P2
2021/08/01 00:01:28;;;;;;;8.60;7.25;;;14.60;99.90;;;;;;5086690;28;20070;-80
2021/08/01 00:03:54;;;;;;;8.35;6.97;;;14.60;99.90;;;;;;5084716;28;20039;-80
2021/08/01 00:06:21;;;;;;;9.82;7.20;;;14.60;99.90;;;;;;5103545;28;20497;-80
2021/08/01 00:08:47;;;;;;;13.80;8.70;;;14.60;99.90;;;;;;5067981;28;20517;-80
2021/08/01 00:11:14;;;;;;;10.65;8.35;;;14.60;99.90;;;;;;5070149;28;20061;-79
2021/08/01 00:13:40;;;;;;;10.30;8.73;;;14.50;99.90;;;;;;5083524;28;20048;-79
2021/08/01 00:16:06;;;;;;;12.98;10.45;;;14.60;99.90;;;;;;5084887;28;20481;-79
2021/08/01 00:18:34;;;;;;;12.48;10.40;;;14.50;99.90;;;;;;5085363;28;20031;-79
2021/08/01 00:21:00;;;;;;;12.95;10.52;;;14.50;99.90;;;;;;5085038;28;20415;-79
2021/08/01 00:23:26;;;;;;;13.68;11.75;;;14.50;99.90;;;;;;5083558;28;20040;-79
2021/08/01 00:25:53;;;;;;;13.75;12.05;;;14.50;99.90;;;;;;5067868;28;20036;-80
2021/08/01 00:28:19;;;;;;;13.93;11.00;;;14.50;99.90;;;;;;5068478;28;20039;-81
2021/08/01 00:30:46;;;;;;;12.55;11.18;;;14.50;99.90;;;;;;5103481;28;20032;-80
2021/08/01 00:33:12;;;;;;;11.60;10.15;;;14.50;99.90;;;;;;5102127;28;20386;-81
2021/08/01 00:35:39;;;;;;;12.38;10.88;;;14.50;99.90;;;;;;5102637;28;20390;-80
2021/08/01 00:38:07;;;;;;;13.10;11.30;;;14.50;99.90;;;;;;5085354;28;20032;-80
2021/08/01 00:40:33;;;;;;;12.10;10.68;;;14.50;99.90;;;;;;5102388;28;20564;-81
2021/08/01 00:43:00;;;;;;;20.17;11.70;;;14.50;99.90;;;;;;5083503;28;20035;-80
2021/08/01 00:45:26;;;;;;;14.00;11.55;;;14.40;99.90;;;;;;5084470;28;20564;-80
2021/08/01 00:47:53;;;;;;;13.80;11.82;;;14.40;99.90;;;;;;5066898;28;20474;-80
2021/08/01 00:50:19;;;;;;;12.70;11.38;;;14.40;99.90;;;;;;5067956;28;20074;-80
2021/08/01 00:52:51;;;;;;;14.93;11.48;;;14.40;99.90;;;;;;5087950;28;20035;-81
2021/08/01 00:55:19;;;;;;;12.90;11.38;;;14.40;99.90;;;;;;5106698;27;20035;-81
2021/08/01 00:57:47;;;;;;;13.95;11.02;;;14.30;99.90;;;;;;5068918;28;20052;-81
2021/08/01 01:00:34;;;;;;;13.38;11.27;;;14.30;99.90;;;;;;5103303;28;20044;-81
2021/08/01 01:03:12;;;;;;;13.07;10.98;;;14.30;99.90;;;;;;5082047;28;20061;-81
2021/08/01 01:05:46;;;;;;;14.25;12.25;;;14.30;99.90;;;;;;5049666;28;20047;-80
2021/08/01 01:08:47;;;;;;;13.07;11.77;;;14.20;99.90;;;;;;5101405;28;20359;-81
2021/08/01 01:11:38;;;;;;;12.60;11.30;;;14.30;99.90;;;;;;5088059;28;20035;-80
2021/08/01 01:14:09;;;;;;;11.27;10.18;;;14.20;99.90;;;;;;5084118;28;20485;-80
2021/08/01 01:16:50;;;;;;;15.00;11.15;;;14.20;99.90;;;;;;5084443;28;20035;-80
2021/08/01 01:19:33;;;;;;;12.38;10.48;;;14.20;99.90;;;;;;5082105;28;20522;-80
2021/08/01 01:22:31;;;;;;;13.55;11.00;;;14.20;99.90;;;;;;5065634;28;20525;-80
2021/08/01 01:25:35;;;;;;;12.88;11.25;;;14.20;99.90;;;;;;5083798;28;20055;-81
2021/08/01 01:28:18;;;;;;;14.13;12.05;;;14.20;99.90;;;;;;5084290;28;20023;-80
2021/08/01 01:30:52;;;;;;;13.00;11.63;;;14.10;99.90;;;;;;5084482;28;20109;-80
2021/08/01 01:33:23;;;;;;;13.98;11.35;;;14.10;99.90;;;;;;5064731;28;20042;-80
2021/08/01 01:35:53;;;;;;;14.85;11.68;;;14.10;99.90;;;;;;5103343;28;20082;-80
2021/08/01 01:38:21;;;;;;;12.25;10.13;;;14.10;99.90;;;;;;5069035;28;20425;-81
2021/08/01 01:41:08;;;;;;;15.02;12.18;;;14.10;99.90;;;;;;5064714;28;20246;-80
2021/08/01 01:43:43;;;;;;;13.65;10.75;;;14.00;99.90;;;;;;5086805;28;20043;-80
2021/08/01 01:46:11;;;;;;;13.05;11.38;;;14.00;99.90;;;;;;5090866;28;20050;-80
2021/08/01 01:48:38;;;;;;;11.35;10.10;;;14.00;99.90;;;;;;5106434;28;20415;-80
2021/08/01 01:51:06;;;;;;;12.05;10.55;;;14.00;99.90;;;;;;5071386;28;20039;-80
2021/08/01 01:53:33;;;;;;;13.43;11.20;;;14.00;99.90;;;;;;5085784;28;20452;-80
2021/08/01 01:56:01;;;;;;;12.77;10.95;;;14.00;99.90;;;;;;5087661;28;20035;-80
2021/08/01 01:58:29;;;;;;;12.05;10.43;;;14.00;99.90;;;;;;5070428;28;20406;-80
2021/08/01 02:00:56;;;;;;;12.02;10.32;;;14.00;99.90;;;;;;5088193;28;20031;-80
2021/08/01 02:03:23;;;;;;;12.98;11.35;;;14.00;99.90;;;;;;5086460;28;20051;-80
2021/08/01 02:06:05;;;;;;;13.50;12.00;;;14.00;99.90;;;;;;5074835;28;20423;-80
2021/08/01 02:08:54;;;;;;;14.18;11.82;;;14.00;99.90;;;;;;5106045;28;20032;-80
2021/08/01 02:11:56;;;;;;;11.98;10.43;;;14.00;99.90;;;;;;5089375;28;20032;-80
2021/08/01 02:15:11;;;;;;;16.15;11.15;;;14.00;99.90;;;;;;5085969;28;20046;-80
2021/08/01 02:18:00;;;;;;;11.30;10.07;;;13.90;99.90;;;;;;5090589;28;20398;-80
2021/08/01 02:20:40;;;;;;;12.98;10.77;;;13.90;99.90;;;;;;5087072;28;20047;-80
2021/08/01 02:23:19;;;;;;;14.75;10.93;;;13.90;99.90;;;;;;5104208;28;20038;-80
2021/08/01 02:25:48;;;;;;;13.55;11.48;;;13.90;99.90;;;;;;5070157;28;20035;-80
2021/08/01 02:28:17;;;;;;;13.18;11.18;;;13.90;99.90;;;;;;5087327;28;20036;-80
2021/08/01 02:30:44;;;;;;;14.98;11.73;;;13.90;99.90;;;;;;5070205;28;20553;-80
2021/08/01 02:33:13;;;;;;;14.93;11.70;;;13.90;99.90;;;;;;5086068;28;20024;-80
2021/08/01 02:35:40;;;;;;;11.73;10.07;;;13.80;99.90;;;;;;5068581;28;20047;-80
2021/08/01 02:38:12;;;;;;;14.80;12.80;;;13.90;99.90;;;;;;5094566;28;20054;-80
2021/08/01 02:40:41;;;;;;;13.60;11.40;;;13.90;99.90;;;;;;5087655;28;20038;-80
2021/08/01 02:43:11;;;;;;;12.00;10.52;;;13.80;99.90;;;;;;5069068;28;20521;-80
2021/08/01 02:45:41;;;;;;;14.45;12.07;;;13.80;99.90;;;;;;5104607;28;20032;-80
2021/08/01 02:48:11;;;;;;;11.50;9.87;;;13.80;99.90;;;;;;5105235;28;20027;-80
2021/08/01 02:50:40;;;;;;;15.05;11.38;;;13.90;99.90;;;;;;5104891;28;20054;-80
2021/08/01 02:53:11;;;;;;;14.57;12.98;;;14.00;99.90;;;;;;5085651;28;20486;-80
2021/08/01 02:55:43;;;;;;;13.82;12.15;;;14.00;99.90;;;;;;5069395;28;20039;-80
2021/08/01 02:58:10;;;;;;;12.02;10.73;;;14.10;99.90;;;;;;5086926;28;20047;-80
2021/08/01 03:00:47;;;;;;;15.32;12.07;;;14.20;99.90;;;;;;5086749;28;20047;-80
2021/08/01 03:03:19;;;;;;;12.05;10.57;;;14.30;99.90;;;;;;5085552;28;20035;-80
2021/08/01 03:05:47;;;;;;;14.18;12.43;;;14.40;99.90;;;;;;5070563;28;20043;-80
2021/08/01 03:08:14;;;;;;;12.85;11.57;;;14.40;99.90;;;;;;5086645;28;20512;-80
2021/08/01 03:10:50;;;;;;;15.45;13.35;;;14.50;99.90;;;;;;5069411;28;20038;-80
2021/08/01 03:13:18;;;;;;;16.10;13.50;;;14.50;99.90;;;;;;5070474;28;20039;-80
2021/08/01 03:15:45;;;;;;;13.10;11.70;;;14.60;99.90;;;;;;5068916;28;20036;-80
2021/08/01 03:18:12;;;;;;;14.35;11.77;;;14.60;99.90;;;;;;5086740;28;20043;-80
2021/08/01 03:20:39;;;;;;;15.07;12.27;;;14.70;99.90;;;;;;5085903;28;20032;-80
2021/08/01 03:23:28;;;;;;;13.15;11.38;;;14.70;99.90;;;;;;5088455;28;20498;-80
2021/08/01 03:26:14;;;;;;;14.80;13.30;;;14.80;99.90;;;;;;5088144;28;20042;-80
2021/08/01 03:28:44;;;;;;;15.55;13.55;;;14.80;99.90;;;;;;5053124;28;20051;-80
2021/08/01 03:31:10;;;;;;;14.77;12.55;;;14.90;99.90;;;;;;5086962;28;20031;-80
2021/08/01 03:33:43;;;;;;;15.73;13.25;;;14.90;99.90;;;;;;5070600;28;20478;-80
2021/08/01 03:36:10;;;;;;;14.60;13.10;;;15.00;99.90;;;;;;5069435;28;20389;-80
2021/08/01 03:39:06;;;;;;;13.90;11.73;;;15.00;99.90;;;;;;5035227;28;20378;-80
2021/08/01 03:41:36;;;;;;;14.68;13.18;;;15.00;99.90;;;;;;5085076;28;20102;-80
2021/08/01 03:44:03;;;;;;;16.38;12.30;;;15.00;99.90;;;;;;5085779;28;20058;-80
2021/08/01 03:46:30;;;;;;;15.70;11.57;;;15.00;99.90;;;;;;5084930;28;20055;-80
2021/08/01 03:48:56;;;;;;;13.80;12.40;;;15.00;99.90;;;;;;5085712;28;20046;-77
2021/08/01 03:51:22;;;;;;;16.42;12.98;;;15.10;99.90;;;;;;5084985;28;20105;-76
2021/08/01 03:53:49;;;;;;;14.75;13.18;;;15.10;99.90;;;;;;5101773;28;20028;-77
2021/08/01 03:56:15;;;;;;;15.15;13.65;;;15.10;99.90;;;;;;5084642;28;20465;-76
2021/08/01 03:58:42;;;;;;;13.73;12.30;;;15.10;99.90;;;;;;5084090;28;20051;-80
2021/08/01 04:01:08;;;;;;;16.48;13.85;;;15.10;99.90;;;;;;5071605;28;20047;-80
2021/08/01 04:03:34;;;;;;;14.25;12.85;;;15.10;99.90;;;;;;5066980;28;20054;-80
2021/08/01 04:06:03;;;;;;;15.82;14.25;;;15.10;99.90;;;;;;5102950;28;20036;-80
2021/08/01 04:08:30;;;;;;;14.68;13.27;;;15.10;99.90;;;;;;5086212;28;20035;-80
2021/08/01 04:10:56;;;;;;;13.93;12.50;;;15.10;99.90;;;;;;5104130;27;20479;-80
2021/08/01 04:13:23;;;;;;;15.18;13.68;;;15.10;99.90;;;;;;5104050;28;20027;-80
2021/08/01 04:15:49;;;;;;;16.23;14.18;;;15.10;99.90;;;;;;5084905;28;20513;-81
2021/08/01 04:18:15;;;;;;;16.98;15.00;;;15.10;99.90;;;;;;5085561;28;20035;-80
2021/08/01 04:20:42;;;;;;;17.73;15.93;;;15.20;99.90;;;;;;5103516;28;20032;-80
2021/08/01 04:23:08;;;;;;;15.95;13.75;;;15.20;99.90;;;;;;5102917;28;20046;-80
2021/08/01 04:25:35;;;;;;;18.25;13.90;;;15.20;99.90;;;;;;5083790;28;20043;-80
2021/08/01 04:28:01;;;;;;;14.43;12.98;;;15.20;99.90;;;;;;5085445;28;20498;-80
2021/08/01 04:30:27;;;;;;;15.07;13.50;;;15.20;99.90;;;;;;5051508;28;20117;-80
2021/08/01 04:32:54;;;;;;;15.80;12.38;;;15.30;99.90;;;;;;5102565;28;20360;-80
2021/08/01 04:35:20;;;;;;;17.73;14.15;;;15.30;99.90;;;;;;5067715;28;20032;-81
2021/08/01 04:37:47;;;;;;;15.77;13.98;;;15.30;99.90;;;;;;5085353;28;20039;-80
2021/08/01 04:40:13;;;;;;;16.23;14.52;;;15.30;99.90;;;;;;5068445;28;20039;-80
2021/08/01 04:42:40;;;;;;;14.70;12.68;;;15.40;99.90;;;;;;5101511;28;20039;-80
2021/08/01 04:45:07;;;;;;;15.75;13.85;;;15.40;99.90;;;;;;5084262;28;20426;-80
2021/08/01 04:47:34;;;;;;;14.77;12.95;;;15.40;99.90;;;;;;5103415;28;20071;-80
2021/08/01 04:50:01;;;;;;;18.27;13.43;;;15.40;99.90;;;;;;5066986;28;20047;-79
2021/08/01 04:52:27;;;;;;;13.02;11.70;;;15.50;99.90;;;;;;5082834;28;20845;-79
2021/08/01 04:54:54;;;;;;;15.98;14.20;;;15.50;99.90;;;;;;5084057;28;20028;-79
2021/08/01 04:57:20;;;;;;;23.60;16.15;;;15.50;99.90;;;;;;5050869;28;20048;-79
2021/08/01 04:59:48;;;;;;;16.20;13.05;;;15.50;99.90;;;;;;5068687;28;20054;-79
2021/08/01 05:02:15;;;;;;;13.70;11.43;;;15.50;99.90;;;;;;5063287;28;20046;-79
2021/08/01 05:04:41;;;;;;;15.10;12.18;;;15.60;99.90;;;;;;5101904;28;20031;-79
2021/08/01 05:07:07;;;;;;;13.43;11.20;;;15.60;99.90;;;;;;5084580;28;20032;-79
2021/08/01 05:09:34;;;;;;;14.50;12.73;;;15.60;99.90;;;;;;5066713;28;20043;-79
2021/08/01 05:12:00;;;;;;;13.52;11.55;;;15.70;99.90;;;;;;5066158;28;20409;-79
2021/08/01 05:14:30;;;;;;;17.80;14.00;;;15.80;99.90;;;;;;5083691;28;20379;-79
2021/08/01 05:16:57;;;;;;;21.40;14.20;;;15.80;99.90;;;;;;5084493;28;20036;-79
2021/08/01 05:19:23;;;;;;;21.48;16.52;;;15.80;99.90;;;;;;5066792;28;20050;-79
2021/08/01 05:21:50;;;;;;;21.33;17.08;;;15.90;99.90;;;;;;5101430;28;20051;-79
2021/08/01 05:24:16;;;;;;;15.98;14.18;;;15.90;99.90;;;;;;5083809;28;20046;-79
2021/08/01 05:26:44;;;;;;;19.40;14.68;;;15.90;99.90;;;;;;5102470;28;20070;-80
2021/08/01 05:29:10;;;;;;;18.65;13.90;;;16.00;99.90;;;;;;5084547;28;20386;-79
2021/08/01 05:31:37;;;;;;;17.80;15.90;;;16.00;99.90;;;;;;5082435;28;20037;-79
2021/08/01 05:34:03;;;;;;;32.33;23.33;;;16.10;99.90;;;;;;5082955;28;20031;-79
2021/08/01 05:36:30;;;;;;;20.73;17.42;;;16.10;99.90;;;;;;5048582;28;20044;-79
2021/08/01 05:38:56;;;;;;;24.15;17.75;;;16.10;99.90;;;;;;5101628;28;20042;-79
2021/08/01 05:41:24;;;;;;;22.75;17.45;;;16.20;99.90;;;;;;5051313;28;20039;-80
2021/08/01 05:43:51;;;;;;;25.15;17.23;;;16.20;99.90;;;;;;5083381;28;20035;-82
2021/08/01 05:46:18;;;;;;;25.70;18.27;;;16.20;99.90;;;;;;5066459;28;20522;-81
2021/08/01 05:48:44;;;;;;;25.30;19.08;;;16.30;99.90;;;;;;5073165;28;20271;-80
2021/08/01 05:51:10;;;;;;;22.63;17.63;;;16.40;99.90;;;;;;5101216;28;20056;-78
2021/08/01 05:53:37;;;;;;;29.00;21.77;;;16.40;99.90;;;;;;5100312;28;20360;-79
2021/08/01 05:56:10;;;;;;;25.17;19.65;;;16.40;99.90;;;;;;5101280;28;20039;-78
2021/08/01 05:58:37;;;;;;;32.10;23.73;;;16.50;99.90;;;;;;5082787;28;20032;-75
2021/08/01 06:01:09;;;;;;;23.45;18.10;;;16.50;99.90;;;;;;5067283;28;20047;-75
2021/08/01 06:03:35;;;;;;;25.42;19.70;;;16.60;99.90;;;;;;5082497;28;20027;-75
2021/08/01 06:06:09;;;;;;;25.17;19.88;;;16.70;99.90;;;;;;5066702;28;20058;-75
2021/08/01 06:08:35;;;;;;;25.73;19.63;;;16.70;99.90;;;;;;5035933;28;20050;-76
2021/08/01 06:11:04;;;;;;;23.63;18.33;;;16.80;99.90;;;;;;5102940;28;20024;-76
2021/08/01 06:13:31;;;;;;;28.05;20.65;;;16.80;99.90;;;;;;5101002;28;20044;-75
2021/08/01 06:15:58;;;;;;;26.73;18.70;;;16.90;99.90;;;;;;5050141;28;20038;-75
2021/08/01 06:18:27;;;;;;;22.85;17.42;;;16.90;99.90;;;;;;5066396;28;20044;-75
2021/08/01 06:21:07;;;;;;;24.98;19.17;;;17.00;99.90;;;;;;5084024;28;20043;-75
2021/08/01 06:23:35;;;;;;;27.17;19.48;;;17.10;99.90;;;;;;5070224;28;20039;-75
2021/08/01 06:26:02;;;;;;;27.75;20.77;;;17.10;99.90;;;;;;5105734;28;20369;-75
2021/08/01 06:28:31;;;;;;;30.08;20.60;;;17.20;99.90;;;;;;5087684;28;20032;-80
2021/08/01 06:31:02;;;;;;;29.33;19.35;;;17.20;99.90;;;;;;5088149;28;20031;-80
2021/08/01 06:33:29;;;;;;;27.75;19.40;;;17.20;99.90;;;;;;5086959;28;20035;-80
2021/08/01 06:35:56;;;;;;;27.90;20.00;;;17.20;99.90;;;;;;5071931;28;20036;-80
2021/08/01 06:38:23;;;;;;;28.77;21.08;;;17.30;99.90;;;;;;5105955;28;20040;-79
2021/08/01 06:40:50;;;;;;;28.00;20.70;;;17.30;99.90;;;;;;5106178;28;20031;-80
2021/08/01 06:43:17;;;;;;;31.48;20.33;;;17.30;99.90;;;;;;5086571;28;20089;-80
2021/08/01 06:45:43;;;;;;;26.92;21.77;;;17.30;99.90;;;;;;5087187;28;20031;-80
2021/08/01 06:48:10;;;;;;;28.75;21.30;;;17.30;99.90;;;;;;5087786;28;20047;-80
2021/08/01 06:50:37;;;;;;;29.50;22.70;;;17.30;99.90;;;;;;5086572;28;20595;-79
2021/08/01 06:53:04;;;;;;;30.45;22.13;;;17.30;99.90;;;;;;5104457;28;20046;-80
2021/08/01 06:55:30;;;;;;;26.08;21.13;;;17.30;99.90;;;;;;5069547;28;20039;-80
2021/08/01 06:57:56;;;;;;;29.10;22.35;;;17.30;99.90;;;;;;5070037;28;20094;-80
2021/08/01 07:00:23;;;;;;;29.90;20.23;;;17.30;99.90;;;;;;5103122;28;20035;-80
2021/08/01 07:02:54;;;;;;;31.20;23.98;;;17.30;99.90;;;;;;5085243;28;20417;-80
2021/08/01 07:05:21;;;;;;;23.42;18.50;;;17.40;99.90;;;;;;5086392;28;20402;-80
2021/08/01 07:07:48;;;;;;;23.73;18.17;;;17.40;99.90;;;;;;5086643;28;20042;-80
2021/08/01 07:10:15;;;;;;;23.77;16.70;;;17.40;99.90;;;;;;5087095;28;20410;-80
2021/08/01 07:12:42;;;;;;;30.67;22.13;;;17.40;99.90;;;;;;5085481;28;20143;-80
2021/08/01 07:15:16;;;;;;;31.40;20.75;;;17.40;99.90;;;;;;5069963;28;20263;-80
2021/08/01 07:17:43;;;;;;;30.33;19.33;;;17.30;99.90;;;;;;5086269;28;20043;-80
2021/08/01 07:20:13;;;;;;;33.65;21.85;;;17.30;99.90;;;;;;5086929;28;20040;-80
2021/08/01 07:22:40;;;;;;;28.10;19.70;;;17.30;99.90;;;;;;5087023;28;20035;-80
2021/08/01 07:25:08;;;;;;;33.45;24.38;;;17.30;99.90;;;;;;5104829;28;20368;-80
2021/08/01 07:27:35;;;;;;;31.35;22.00;;;17.30;99.90;;;;;;5068786;28;20040;-80
2021/08/01 07:30:02;;;;;;;25.55;18.33;;;17.20;99.90;;;;;;5086443;28;20051;-80
2021/08/01 07:32:29;;;;;;;30.83;21.40;;;17.20;99.90;;;;;;5102380;27;20491;-80
2021/08/01 07:34:55;;;;;;;34.92;22.88;;;17.20;99.90;;;;;;5085805;28;20035;-80
2021/08/01 07:37:22;;;;;;;31.80;21.77;;;17.10;99.90;;;;;;5104937;28;20047;-80
2021/08/01 07:39:48;;;;;;;37.25;23.27;;;17.10;99.90;;;;;;5086787;28;20043;-80
2021/08/01 07:42:15;;;;;;;36.70;24.65;;;17.10;99.90;;;;;;5084861;28;20040;-80
2021/08/01 07:44:56;;;;;;;28.02;20.10;;;17.10;99.90;;;;;;5085817;28;20042;-80
2021/08/01 07:47:24;;;;;;;31.90;20.38;;;17.10;99.90;;;;;;5104387;28;20027;-80
2021/08/01 07:49:51;;;;;;;32.25;21.38;;;17.10;99.90;;;;;;5104110;28;20035;-80
2021/08/01 07:52:19;;;;;;;32.30;20.10;;;17.20;99.90;;;;;;5101687;28;20039;-80
2021/08/01 07:54:47;;;;;;;33.42;21.33;;;17.20;99.90;;;;;;5104012;28;20039;-80
2021/08/01 07:57:28;;;;;;;41.13;26.73;;;17.20;99.90;;;;;;5104452;28;20034;-80
2021/08/01 07:59:56;;;;;;;32.25;22.13;;;17.20;99.90;;;;;;5068641;28;20055;-80
2021/08/01 08:02:23;;;;;;;34.97;23.75;;;17.20;99.90;;;;;;5084829;28;20036;-80
2021/08/01 08:04:50;;;;;;;33.45;21.85;;;17.20;99.90;;;;;;5103542;28;20501;-80
2021/08/01 08:07:17;;;;;;;38.50;26.02;;;17.30;99.90;;;;;;5086033;28;20507;-80
2021/08/01 08:09:44;;;;;;;35.17;23.73;;;17.30;99.90;;;;;;5103664;28;20030;-80
2021/08/01 08:12:11;;;;;;;35.95;23.65;;;17.30;99.90;;;;;;5049870;28;20390;-80
2021/08/01 08:14:37;;;;;;;38.40;25.20;;;17.30;99.90;;;;;;5084864;28;20040;-80
2021/08/01 08:17:05;;;;;;;38.85;26.42;;;17.30;99.90;;;;;;5104054;28;20463;-80
2021/08/01 08:19:31;;;;;;;38.08;25.27;;;17.40;99.90;;;;;;5085896;28;20634;-79
2021/08/01 08:21:58;;;;;;;31.05;21.98;;;17.40;99.90;;;;;;5084113;28;20040;-80
2021/08/01 08:24:25;;;;;;;41.22;26.38;;;17.50;99.90;;;;;;5085099;28;20047;-80
2021/08/01 08:26:53;;;;;;;35.90;22.63;;;17.50;99.90;;;;;;5085879;28;20371;-80
2021/08/01 08:29:23;;;;;;;43.88;25.98;;;17.50;99.90;;;;;;5085120;28;20043;-80
2021/08/01 08:31:54;;;;;;;44.65;26.73;;;17.60;99.90;;;;;;5082508;28;20035;-80
2021/08/01 08:34:22;;;;;;;36.27;24.93;;;17.60;99.90;;;;;;5084248;28;20043;-80
2021/08/01 08:36:51;;;;;;;42.00;27.08;;;17.60;99.90;;;;;;5083005;28;20031;-80
2021/08/01 08:39:19;;;;;;;37.80;26.38;;;17.60;99.90;;;;;;5082458;28;20028;-80
2021/08/01 08:41:46;;;;;;;42.80;27.63;;;17.60;99.90;;;;;;5103276;28;20035;-80
2021/08/01 08:44:13;;;;;;;40.72;26.38;;;17.60;99.90;;;;;;5101993;28;20157;-80
2021/08/01 08:46:40;;;;;;;42.58;25.70;;;17.60;99.90;;;;;;5085362;28;20043;-80
2021/08/01 08:49:09;;;;;;;34.92;23.38;;;17.70;99.90;;;;;;5103054;28;20044;-80
2021/08/01 08:51:40;;;;;;;45.63;27.95;;;17.70;99.90;;;;;;5103283;28;20047;-80
2021/08/01 08:54:41;;;;;;;46.90;28.30;;;17.80;99.90;;;;;;5102569;28;20023;-80
2021/08/01 08:57:15;;;;;;;44.08;29.13;;;17.80;99.90;;;;;;5101953;28;20035;-80
2021/08/01 08:59:43;;;;;;;45.92;28.83;;;17.90;99.90;;;;;;5102981;28;20058;-80
2021/08/01 09:02:16;;;;;;;40.85;25.60;;;17.90;99.90;;;;;;5066217;28;20051;-80
2021/08/01 09:04:44;;;;;;;44.42;27.80;;;17.90;99.90;;;;;;5102247;28;20032;-80
2021/08/01 09:07:11;;;;;;;43.05;29.75;;;18.00;99.90;;;;;;5102929;28;20034;-80
2021/08/01 09:09:37;;;;;;;43.55;27.83;;;18.00;99.90;;;;;;5065567;28;20058;-80
2021/08/01 09:12:03;;;;;;;39.10;27.40;;;18.00;99.90;;;;;;5066457;28;20525;-80
2021/08/01 09:14:30;;;;;;;39.40;26.67;;;18.10;99.90;;;;;;5067495;28;20038;-80
2021/08/01 09:16:56;;;;;;;43.28;27.27;;;18.20;99.90;;;;;;5067406;28;20051;-80
2021/08/01 09:19:30;;;;;;;47.80;29.17;;;18.20;99.90;;;;;;5068515;28;20110;-80
2021/08/01 09:22:24;;;;;;;41.15;26.85;;;18.30;99.90;;;;;;5101312;28;20036;-80
2021/08/01 09:24:52;;;;;;;45.28;28.73;;;18.30;99.90;;;;;;5080485;28;20047;-80
2021/08/01 09:27:30;;;;;;;41.42;27.13;;;18.20;99.90;;;;;;5085065;28;20036;-80
2021/08/01 09:29:57;;;;;;;41.53;27.05;;;18.30;99.90;;;;;;5107464;28;20526;-81
2021/08/01 09:32:25;;;;;;;45.58;29.63;;;18.30;99.90;;;;;;5101530;28;20471;-80
2021/08/01 09:34:52;;;;;;;46.20;31.15;;;18.30;99.90;;;;;;5102213;28;20190;-80
2021/08/01 09:37:54;;;;;;;45.42;28.75;;;18.30;99.90;;;;;;5101989;28;20378;-80
2021/08/01 09:40:20;;;;;;;41.23;27.40;;;18.40;99.90;;;;;;5084288;28;20031;-81
2021/08/01 09:42:47;;;;;;;42.80;27.48;;;18.40;99.90;;;;;;5066375;28;20284;-80
2021/08/01 09:45:19;;;;;;;36.70;26.58;;;18.50;99.90;;;;;;5066966;28;20039;-79
2021/08/01 09:47:47;;;;;;;34.42;23.67;;;18.60;99.90;;;;;;5102089;28;20035;-80
2021/08/01 09:50:15;;;;;;;37.47;25.50;;;18.80;99.90;;;;;;5066929;28;20043;-80
2021/08/01 09:52:42;;;;;;;43.70;28.08;;;19.10;99.90;;;;;;5068063;28;20035;-80
2021/08/01 09:55:19;;;;;;;41.83;28.25;;;19.40;99.90;;;;;;5082830;28;20093;-81
2021/08/01 09:57:53;;;;;;;33.33;24.27;;;19.70;99.90;;;;;;5069933;28;20055;-80
2021/08/01 10:00:21;;;;;;;35.38;22.65;;;20.00;99.90;;;;;;5085757;28;20043;-80
2021/08/01 10:02:48;;;;;;;38.63;26.10;;;20.20;99.90;;;;;;5073450;28;20043;-81
2021/08/01 10:05:15;;;;;;;33.45;23.95;;;20.40;99.90;;;;;;5087632;28;20493;-81
2021/08/01 10:07:44;;;;;;;36.78;26.15;;;20.40;99.90;;;;;;5106830;28;20043;-76
2021/08/01 10:10:27;;;;;;;30.60;21.95;;;20.40;99.90;;;;;;5071015;28;20043;-76
2021/08/01 10:12:58;;;;;;;34.10;23.38;;;20.40;99.90;;;;;;5066572;28;20036;-78
2021/08/01 10:15:26;;;;;;;30.43;23.17;;;20.50;99.90;;;;;;5054935;28;20032;-80
2021/08/01 10:17:53;;;;;;;40.35;28.40;;;20.70;99.90;;;;;;5087728;28;20062;-79
2021/08/01 10:20:19;;;;;;;34.47;24.65;;;20.90;99.90;;;;;;5106360;28;20047;-79
2021/08/01 10:22:46;;;;;;;36.03;24.02;;;21.00;99.90;;;;;;5085921;28;20054;-79
2021/08/01 10:25:24;;;;;;;32.05;21.48;;;21.20;99.90;;;;;;5105906;28;20039;-81
2021/08/01 10:27:59;;;;;;;32.65;24.05;;;21.30;99.90;;;;;;5085909;28;20043;-79
2021/08/01 10:30:27;;;;;;;28.63;19.67;;;21.50;99.90;;;;;;5087976;27;20572;-79
2021/08/01 10:33:01;;;;;;;29.17;20.92;;;21.60;99.90;;;;;;5104433;28;20063;-79
2021/08/01 10:35:29;;;;;;;26.20;20.60;;;21.90;99.90;;;;;;5086449;28;20051;-80
2021/08/01 10:38:00;;;;;;;29.67;22.00;;;22.10;99.90;;;;;;5070416;28;20405;-77
2021/08/01 10:40:29;;;;;;;26.92;19.10;;;22.30;99.90;;;;;;5105379;28;20557;-77
2021/08/01 10:43:00;;;;;;;28.48;22.15;;;22.30;99.90;;;;;;5085525;28;20493;-76
2021/08/01 10:45:27;;;;;;;24.35;18.67;;;22.20;99.90;;;;;;5086393;28;20050;-76
2021/08/01 10:47:54;;;;;;;27.98;20.80;;;22.00;99.90;;;;;;5088911;28;20044;-79
2021/08/01 10:50:27;;;;;;;28.38;19.52;;;21.70;99.90;;;;;;5087977;28;20055;-81
2021/08/01 10:53:19;;;;;;;29.38;20.33;;;21.40;99.90;;;;;;5069121;28;20502;-81
2021/08/01 10:55:50;;;;;;;29.05;21.17;;;21.10;99.90;;;;;;5069522;28;20031;-79
2021/08/01 10:58:18;;;;;;;27.98;19.38;;;20.70;99.90;;;;;;5089305;28;20028;-81
2021/08/01 11:00:59;;;;;;;27.77;20.63;;;20.00;99.90;;;;;;5089088;28;20024;-80
2021/08/01 11:03:27;;;;;;;32.93;22.40;;;19.40;99.90;;;;;;5105736;28;20046;-80
2021/08/01 11:05:54;;;;;;;31.80;22.77;;;19.00;99.90;;;;;;5071324;28;20842;-81
2021/08/01 11:08:20;;;;;;;29.98;20.98;;;18.70;99.90;;;;;;5107262;28;20036;-81
2021/08/01 11:10:47;;;;;;;33.42;21.63;;;18.50;99.90;;;;;;5088534;28;20479;-80
2021/08/01 11:13:28;;;;;;;31.77;20.10;;;18.40;99.90;;;;;;5086884;28;20020;-80
2021/08/01 11:15:55;;;;;;;25.83;19.52;;;18.40;99.90;;;;;;5087203;28;20035;-82
2021/08/01 11:18:33;;;;;;;26.15;18.50;;;18.40;99.90;;;;;;5107359;28;20062;-81
2021/08/01 11:21:03;;;;;;;26.35;19.50;;;18.40;99.90;;;;;;5070224;28;20398;-81
2021/08/01 11:23:53;;;;;;;25.95;18.42;;;18.50;99.90;;;;;;5083990;28;20051;-75
2021/08/01 11:26:20;;;;;;;23.02;16.73;;;18.60;99.90;;;;;;5070791;28;20390;-75
2021/08/01 11:29:04;;;;;;;24.38;17.85;;;18.70;99.90;;;;;;5052097;28;20043;-74
2021/08/01 11:31:31;;;;;;;22.95;15.05;;;18.90;99.90;;;;;;5087669;28;20031;-75
2021/08/01 11:34:19;;;;;;;20.40;14.27;;;18.90;99.90;;;;;;5101511;28;20054;-75
2021/08/01 11:36:47;;;;;;;19.20;14.23;;;18.80;99.90;;;;;;5080309;28;20497;-73
2021/08/01 11:39:14;;;;;;;17.30;12.65;;;18.70;99.90;;;;;;5070734;28;20043;-74
2021/08/01 11:41:43;;;;;;;20.75;15.15;;;18.70;99.90;;;;;;5104828;28;20606;-74
2021/08/01 11:44:21;;;;;;;19.55;15.57;;;18.70;99.90;;;;;;5085987;28;20529;-74
2021/08/01 11:46:59;;;;;;;23.95;19.10;;;18.70;99.90;;;;;;5102771;28;20505;-74
2021/08/01 11:49:37;;;;;;;21.10;16.48;;;18.80;99.90;;;;;;5078388;28;20399;-74
2021/08/01 11:52:06;;;;;;;24.35;16.83;;;18.80;99.90;;;;;;5066577;28;20406;-75
2021/08/01 11:54:32;;;;;;;24.60;17.75;;;18.80;99.90;;;;;;5095718;28;20054;-74
2021/08/01 11:57:08;;;;;;;23.60;17.00;;;18.80;99.90;;;;;;5063277;28;20027;-75
2021/08/01 11:59:35;;;;;;;26.98;18.75;;;18.70;99.90;;;;;;5104492;28;20035;-75
2021/08/01 12:02:16;;;;;;;27.10;17.38;;;18.70;99.90;;;;;;5085646;28;20474;-73
2021/08/01 12:04:57;;;;;;;23.83;16.43;;;18.60;99.90;;;;;;5085623;28;20117;-79
2021/08/01 12:07:39;;;;;;;30.25;18.23;;;18.60;99.90;;;;;;5085810;28;20051;-79
2021/08/01 12:10:16;;;;;;;18.65;13.75;;;18.50;99.90;;;;;;5086653;28;20035;-78
2021/08/01 12:12:42;;;;;;;16.67;12.38;;;18.40;99.90;;;;;;5070538;28;20502;-80
2021/08/01 12:15:09;;;;;;;19.42;13.00;;;18.30;99.90;;;;;;5071914;28;20595;-78
2021/08/01 12:17:37;;;;;;;14.85;10.77;;;18.20;99.90;;;;;;5098995;28;20047;-79
2021/08/01 12:20:06;;;;;;;15.80;10.45;;;18.10;99.90;;;;;;5067128;28;20490;-80
2021/08/01 12:22:33;;;;;;;11.93;8.50;;;18.00;99.90;;;;;;5067326;28;20900;-74
2021/08/01 12:25:02;;;;;;;9.98;7.40;;;18.00;99.90;;;;;;5084892;28;20039;-73
2021/08/01 12:27:35;;;;;;;12.02;8.23;;;17.90;99.90;;;;;;5086482;28;20043;-75
2021/08/01 12:30:04;;;;;;;10.30;7.97;;;17.90;99.90;;;;;;5104392;28;20498;-75
2021/08/01 12:33:04;;;;;;;11.68;8.32;;;17.80;99.90;;;;;;5085955;28;20031;-74
2021/08/01 12:35:38;;;;;;;9.93;7.80;;;17.90;99.90;;;;;;5030214;28;20048;-74
2021/08/01 12:38:08;;;;;;;12.07;8.82;;;17.90;99.90;;;;;;5086716;28;20027;-75
2021/08/01 12:40:40;;;;;;;14.05;9.70;;;18.10;99.90;;;;;;5086498;28;20039;-75
2021/08/01 12:43:29;;;;;;;13.85;8.35;;;18.20;99.90;;;;;;5100131;28;20471;-75
2021/08/01 12:45:56;;;;;;;9.43;7.22;;;18.40;99.90;;;;;;5079558;28;20152;-75